createdAt,value
2018-03-30T00:00:48.586Z,8.90
2018-03-30T00:02:42.298Z,8.80
2018-03-30T00:03:44.413Z,8.70
2018-03-30T00:04:45.501Z,8.70
2018-03-30T00:05:46.608Z,8.70
2018-03-30T00:07:00.272Z,8.70
2018-03-30T00:08:02.685Z,8.70
2018-03-30T00:09:03.779Z,8.60
2018-03-30T00:10:04.928Z,8.60
2018-03-30T00:11:06.044Z,8.60
2018-03-30T00:12:07.888Z,8.60
2018-03-30T00:13:08.977Z,8.50
2018-03-30T00:14:10.069Z,8.50
2018-03-30T00:15:11.147Z,8.60
2018-03-30T00:16:12.252Z,8.60
2018-03-30T00:17:13.336Z,8.60
2018-03-30T00:18:14.437Z,8.60
2018-03-30T00:19:15.547Z,8.60
2018-03-30T00:20:16.644Z,8.60
2018-03-30T00:21:17.729Z,8.60
2018-03-30T00:22:18.825Z,8.60
2018-03-30T00:23:19.928Z,8.60
2018-03-30T00:24:21.020Z,8.70
2018-03-30T00:25:22.113Z,8.70
2018-03-30T00:26:23.203Z,8.80
2018-03-30T00:27:24.296Z,8.80
2018-03-30T00:28:25.384Z,8.80
2018-03-30T00:29:27.218Z,8.80
2018-03-30T00:30:29.049Z,8.90
2018-03-30T00:31:30.159Z,8.80
2018-03-30T00:32:31.266Z,8.90
2018-03-30T00:33:32.355Z,8.90
2018-03-30T00:34:33.440Z,8.90
2018-03-30T00:35:34.529Z,8.90
2018-03-30T00:36:35.617Z,8.90
2018-03-30T00:37:36.726Z,8.90
2018-03-30T00:38:37.843Z,8.90
2018-03-30T00:39:39.744Z,8.90
2018-03-30T00:40:41.530Z,8.90
2018-03-30T00:41:42.639Z,8.90
2018-03-30T00:42:43.725Z,8.90
2018-03-30T00:43:45.567Z,8.90
2018-03-30T00:44:47.388Z,9.00
2018-03-30T00:45:48.483Z,8.90
2018-03-30T00:46:49.565Z,8.90
2018-03-30T00:47:50.660Z,8.90
2018-03-30T00:48:51.759Z,9.00
2018-03-30T00:49:52.844Z,9.00
2018-03-30T00:50:53.929Z,9.00
2018-03-30T00:51:55.016Z,9.00
2018-03-30T00:52:56.105Z,8.90
2018-03-30T00:55:05.677Z,8.90
2018-03-30T00:56:06.778Z,8.90
2018-03-30T00:57:07.876Z,8.80
2018-03-30T00:58:09.704Z,8.70
2018-03-30T00:59:10.810Z,8.70
2018-03-30T01:00:11.921Z,8.60
2018-03-30T01:01:13.019Z,8.60
2018-03-30T01:02:14.857Z,8.50
2018-03-30T01:03:15.946Z,8.50
2018-03-30T01:04:17.025Z,8.50
2018-03-30T01:05:18.140Z,8.50
2018-03-30T01:06:19.259Z,8.50
2018-03-30T01:07:20.365Z,8.40
2018-03-30T01:08:21.477Z,8.30
2018-03-30T01:09:22.567Z,8.30
2018-03-30T01:10:23.694Z,8.20
2018-03-30T01:11:24.781Z,8.20
2018-03-30T01:12:25.864Z,8.20
2018-03-30T01:13:26.953Z,8.20
2018-03-30T01:14:28.049Z,8.20
2018-03-30T01:15:29.129Z,8.10
2018-03-30T01:16:30.240Z,8.10
2018-03-30T01:17:32.057Z,8.20
2018-03-30T01:18:33.139Z,8.10
2018-03-30T01:19:34.984Z,8.10
2018-03-30T01:20:36.080Z,8.10
2018-03-30T01:21:37.160Z,8.10
2018-03-30T01:22:39.009Z,8.00
2018-03-30T01:23:40.093Z,8.00
2018-03-30T01:24:41.193Z,8.00
2018-03-30T01:25:42.293Z,8.00
2018-03-30T01:26:43.388Z,8.00
2018-03-30T01:27:44.495Z,8.00
2018-03-30T01:28:45.579Z,8.00
2018-03-30T01:29:46.690Z,8.00
2018-03-30T01:30:48.538Z,8.00
2018-03-30T01:31:49.668Z,7.90
2018-03-30T01:32:50.776Z,7.90
2018-03-30T01:33:51.852Z,7.90
2018-03-30T01:34:52.970Z,7.90
2018-03-30T01:35:54.067Z,7.90
2018-03-30T01:36:55.156Z,7.90
2018-03-30T01:37:56.252Z,7.90
2018-03-30T01:38:57.372Z,7.90
2018-03-30T01:39:58.457Z,7.90
2018-03-30T01:40:59.599Z,8.00
2018-03-30T01:42:00.712Z,8.00
2018-03-30T01:43:02.561Z,8.10
2018-03-30T01:44:04.388Z,8.10
2018-03-30T01:45:05.492Z,8.00
2018-03-30T01:46:06.580Z,8.10
2018-03-30T01:47:08.405Z,8.10
2018-03-30T01:48:09.487Z,8.10
2018-03-30T01:49:10.609Z,8.10
2018-03-30T01:50:11.743Z,8.30
2018-03-30T01:51:12.830Z,8.20
2018-03-30T01:52:13.932Z,8.10
2018-03-30T01:53:15.046Z,8.10
2018-03-30T01:54:16.144Z,8.10
2018-03-30T01:55:17.244Z,8.10
2018-03-30T01:56:18.325Z,8.10
2018-03-30T01:57:19.421Z,8.10
2018-03-30T01:58:20.525Z,8.10
2018-03-30T01:59:21.621Z,8.10
2018-03-30T02:00:22.752Z,8.10
2018-03-30T02:01:24.582Z,8.10
2018-03-30T02:02:25.696Z,8.10
2018-03-30T02:03:26.780Z,8.10
2018-03-30T02:04:28.601Z,8.10
2018-03-30T02:05:29.728Z,8.00
2018-03-30T02:06:30.818Z,8.10
2018-03-30T02:07:31.912Z,8.10
2018-03-30T02:08:33.004Z,7.90
2018-03-30T02:09:34.079Z,8.00
2018-03-30T02:10:35.175Z,8.00
2018-03-30T02:11:36.260Z,8.00
2018-03-30T02:12:37.359Z,8.00
2018-03-30T02:13:38.473Z,8.00
2018-03-30T02:14:39.578Z,8.00
2018-03-30T02:15:40.684Z,8.00
2018-03-30T02:16:41.777Z,8.00
2018-03-30T02:17:42.876Z,8.00
2018-03-30T02:18:43.957Z,8.00
2018-03-30T02:19:45.045Z,8.00
2018-03-30T02:20:46.145Z,8.00
2018-03-30T02:21:47.232Z,8.00
2018-03-30T02:22:48.316Z,8.00
2018-03-30T02:23:50.132Z,7.90
2018-03-30T02:24:51.219Z,7.90
2018-03-30T02:25:52.316Z,7.90
2018-03-30T02:26:54.160Z,7.90
2018-03-30T02:27:55.235Z,7.90
2018-03-30T02:28:56.311Z,7.90
2018-03-30T02:29:57.441Z,7.90
2018-03-30T02:30:58.532Z,7.90
2018-03-30T02:32:00.367Z,7.90
2018-03-30T02:33:01.465Z,7.90
2018-03-30T02:34:03.337Z,7.90
2018-03-30T02:35:04.452Z,7.90
2018-03-30T02:36:05.578Z,7.90
2018-03-30T02:37:06.646Z,7.90
2018-03-30T02:38:07.760Z,7.90
2018-03-30T02:39:09.609Z,7.90
2018-03-30T02:40:10.705Z,7.80
2018-03-30T02:41:11.804Z,7.80
2018-03-30T02:42:12.911Z,7.80
2018-03-30T02:43:14.744Z,7.70
2018-03-30T02:44:15.828Z,7.70
2018-03-30T02:45:16.948Z,7.70
2018-03-30T02:46:18.053Z,7.70
2018-03-30T02:47:19.888Z,7.60
2018-03-30T02:48:20.972Z,7.60
2018-03-30T02:49:22.059Z,7.60
2018-03-30T02:50:23.160Z,7.60
2018-03-30T02:51:24.246Z,7.60
2018-03-30T02:52:25.331Z,7.60
2018-03-30T02:53:26.429Z,7.60
2018-03-30T02:54:27.520Z,7.60
2018-03-30T02:55:28.636Z,7.50
2018-03-30T02:56:29.732Z,7.60
2018-03-30T02:57:30.901Z,7.60
2018-03-30T02:58:32.669Z,7.60
2018-03-30T02:59:33.761Z,7.60
2018-03-30T03:00:34.848Z,7.60
2018-03-30T03:01:36.693Z,7.50
2018-03-30T03:02:37.788Z,7.50
2018-03-30T03:03:38.867Z,7.50
2018-03-30T03:04:40.691Z,7.50
2018-03-30T03:05:41.800Z,7.50
2018-03-30T03:06:42.914Z,7.50
2018-03-30T03:07:44.031Z,7.60
2018-03-30T03:08:45.854Z,7.60
2018-03-30T03:09:46.944Z,7.60
2018-03-30T03:10:48.029Z,7.70
2018-03-30T03:11:49.853Z,7.70
2018-03-30T03:12:50.946Z,7.60
2018-03-30T03:13:52.032Z,7.70
2018-03-30T03:14:53.136Z,7.70
2018-03-30T03:15:54.233Z,7.70
2018-03-30T03:16:55.345Z,7.60
2018-03-30T03:17:56.451Z,7.60
2018-03-30T03:18:57.536Z,7.60
2018-03-30T03:20:05.520Z,7.60
2018-03-30T03:21:06.613Z,7.60
2018-03-30T03:22:07.721Z,7.50
2018-03-30T03:23:08.828Z,7.50
2018-03-30T03:24:09.943Z,7.50
2018-03-30T03:25:11.045Z,7.50
2018-03-30T03:26:12.891Z,7.50
2018-03-30T03:27:14.004Z,7.50
2018-03-30T03:28:15.097Z,7.50
2018-03-30T03:29:16.191Z,7.50
2018-03-30T03:30:17.288Z,7.50
2018-03-30T03:31:18.373Z,7.50
2018-03-30T03:32:20.223Z,7.50
2018-03-30T03:33:22.048Z,7.50
2018-03-30T03:34:23.116Z,7.40
2018-03-30T03:35:24.212Z,7.50
2018-03-30T03:36:25.293Z,7.40
2018-03-30T03:37:26.378Z,7.40
2018-03-30T03:38:27.460Z,7.30
2018-03-30T03:39:28.537Z,7.30
2018-03-30T03:40:30.360Z,7.30
2018-03-30T03:41:31.450Z,7.30
2018-03-30T03:42:32.544Z,7.30
2018-03-30T03:43:33.624Z,7.30
2018-03-30T03:44:34.733Z,7.20
2018-03-30T03:45:35.823Z,7.20
2018-03-30T03:46:36.911Z,7.20
2018-03-30T03:47:38.760Z,7.10
2018-03-30T03:48:40.596Z,7.10
2018-03-30T03:49:41.680Z,7.10
2018-03-30T03:50:42.764Z,7.10
2018-03-30T03:51:44.604Z,7.10
2018-03-30T03:52:45.712Z,7.10
2018-03-30T03:53:46.812Z,7.00
2018-03-30T03:54:47.891Z,7.00
2018-03-30T03:55:48.960Z,7.00
2018-03-30T03:56:50.780Z,7.00
2018-03-30T03:57:51.872Z,7.00
2018-03-30T03:58:52.959Z,7.00
2018-03-30T03:59:54.062Z,7.00
2018-03-30T04:00:55.169Z,7.00
2018-03-30T04:01:56.242Z,6.90
2018-03-30T04:02:57.356Z,6.90
2018-03-30T04:03:58.437Z,6.80
2018-03-30T04:05:00.261Z,6.80
2018-03-30T04:06:01.381Z,6.80
2018-03-30T04:07:02.479Z,6.80
2018-03-30T04:08:03.586Z,6.70
2018-03-30T04:09:05.412Z,6.60
2018-03-30T04:10:06.517Z,6.60
2018-03-30T04:11:08.367Z,6.60
2018-03-30T04:12:09.463Z,6.50
2018-03-30T04:13:10.556Z,6.50
2018-03-30T04:14:11.628Z,6.50
2018-03-30T04:15:12.708Z,6.40
2018-03-30T04:16:13.805Z,6.40
2018-03-30T04:17:14.897Z,6.40
2018-03-30T04:18:15.996Z,6.40
2018-03-30T04:19:17.140Z,6.40
2018-03-30T04:20:18.196Z,6.40
2018-03-30T04:21:19.287Z,6.30
2018-03-30T04:22:20.363Z,6.40
2018-03-30T04:23:21.474Z,6.30
2018-03-30T04:24:22.570Z,6.30
2018-03-30T04:25:23.648Z,6.30
2018-03-30T04:26:24.750Z,6.30
2018-03-30T04:27:29.993Z,6.40
2018-03-30T04:28:31.081Z,6.40
2018-03-30T04:29:32.185Z,6.40
2018-03-30T04:30:33.272Z,6.40
2018-03-30T04:31:34.358Z,6.40
2018-03-30T04:32:35.476Z,6.40
2018-03-30T04:33:36.566Z,6.40
2018-03-30T04:34:37.649Z,6.50
2018-03-30T04:35:39.481Z,6.50
2018-03-30T04:36:47.397Z,6.50
2018-03-30T04:37:48.496Z,6.50
2018-03-30T04:38:50.347Z,6.60
2018-03-30T04:39:51.443Z,6.50
2018-03-30T04:40:52.528Z,6.50
2018-03-30T04:41:53.644Z,6.50
2018-03-30T04:42:54.683Z,6.50
2018-03-30T04:43:55.789Z,6.40
2018-03-30T04:44:56.891Z,6.40
2018-03-30T04:45:57.998Z,6.40
2018-03-30T04:46:59.056Z,6.40
2018-03-30T04:48:00.144Z,6.40
2018-03-30T04:49:01.240Z,6.40
2018-03-30T04:50:02.350Z,6.30
2018-03-30T04:51:03.448Z,6.40
2018-03-30T04:52:04.540Z,6.40
2018-03-30T04:53:05.637Z,6.40
2018-03-30T04:54:07.467Z,6.40
2018-03-30T04:55:08.570Z,6.40
2018-03-30T04:56:09.680Z,6.40
2018-03-30T04:57:10.768Z,6.40
2018-03-30T04:58:11.852Z,6.40
2018-03-30T04:59:12.963Z,6.40
2018-03-30T05:00:14.063Z,6.30
2018-03-30T05:01:15.170Z,6.30
2018-03-30T05:02:17.757Z,6.20
2018-03-30T05:03:18.840Z,6.20
2018-03-30T05:04:19.940Z,6.20
2018-03-30T05:05:21.036Z,6.20
2018-03-30T05:06:22.173Z,6.20
2018-03-30T05:07:23.267Z,6.10
2018-03-30T05:08:24.357Z,6.20
2018-03-30T05:09:25.465Z,6.20
2018-03-30T05:10:26.575Z,6.10
2018-03-30T05:11:27.694Z,6.20
2018-03-30T05:12:28.787Z,6.20
2018-03-30T05:13:29.880Z,6.20
2018-03-30T05:15:38.861Z,6.30
2018-03-30T05:16:39.940Z,6.30
2018-03-30T05:17:41.029Z,6.40
2018-03-30T05:18:42.865Z,6.30
2018-03-30T05:19:43.965Z,6.30
2018-03-30T05:20:45.103Z,6.30
2018-03-30T05:21:46.181Z,6.30
2018-03-30T05:22:47.272Z,6.30
2018-03-30T05:23:48.367Z,6.30
2018-03-30T05:24:49.479Z,6.30
2018-03-30T05:25:50.572Z,6.30
2018-03-30T05:26:51.665Z,6.30
2018-03-30T05:27:52.756Z,6.30
2018-03-30T05:28:53.871Z,6.30
2018-03-30T05:29:55.688Z,6.30
2018-03-30T05:30:56.784Z,6.30
2018-03-30T05:31:57.857Z,6.30
2018-03-30T05:32:58.945Z,6.30
2018-03-30T05:34:00.041Z,6.30
2018-03-30T05:35:01.160Z,6.30
2018-03-30T05:36:02.300Z,6.30
2018-03-30T05:37:03.392Z,6.30
2018-03-30T05:38:04.480Z,6.40
2018-03-30T05:39:05.569Z,6.40
2018-03-30T05:40:06.669Z,6.40
2018-03-30T05:41:07.777Z,6.40
2018-03-30T05:42:08.877Z,6.40
2018-03-30T05:43:09.962Z,6.50
2018-03-30T05:44:11.049Z,6.40
2018-03-30T05:45:12.164Z,6.40
2018-03-30T05:46:13.262Z,6.40
2018-03-30T05:47:14.368Z,6.40
2018-03-30T05:48:15.501Z,6.40
2018-03-30T05:49:16.591Z,6.40
2018-03-30T05:50:18.435Z,6.40
2018-03-30T05:51:19.537Z,6.30
2018-03-30T05:52:20.648Z,6.40
2018-03-30T05:53:21.755Z,6.40
2018-03-30T05:54:22.835Z,6.40
2018-03-30T05:55:23.925Z,6.30
2018-03-30T05:56:25.015Z,6.40
2018-03-30T05:57:26.101Z,6.40
2018-03-30T05:58:27.215Z,6.40
2018-03-30T05:59:28.295Z,6.50
2018-03-30T06:00:29.396Z,6.50
2018-03-30T06:01:30.498Z,6.50
2018-03-30T06:02:31.593Z,6.60
2018-03-30T06:03:32.681Z,6.60
2018-03-30T06:04:34.533Z,6.70
2018-03-30T06:05:35.643Z,6.70
2018-03-30T06:06:36.741Z,6.70
2018-03-30T06:07:37.832Z,6.70
2018-03-30T06:08:38.930Z,6.80
2018-03-30T06:09:40.783Z,6.80
2018-03-30T06:10:42.629Z,6.80
2018-03-30T06:11:43.713Z,6.80
2018-03-30T06:12:44.794Z,6.80
2018-03-30T06:13:46.622Z,6.80
2018-03-30T06:14:47.707Z,6.80
2018-03-30T06:15:48.804Z,6.80
2018-03-30T06:16:50.658Z,6.80
2018-03-30T06:17:52.505Z,6.90
2018-03-30T06:18:53.603Z,6.80
2018-03-30T06:19:54.702Z,6.80
2018-03-30T06:20:55.816Z,6.80
2018-03-30T06:21:57.633Z,6.90
2018-03-30T06:22:58.740Z,6.80
2018-03-30T06:23:59.860Z,6.90
2018-03-30T06:25:00.942Z,6.90
2018-03-30T06:26:02.065Z,6.90
2018-03-30T06:27:03.169Z,6.90
2018-03-30T06:28:04.258Z,6.90
2018-03-30T06:29:06.088Z,6.90
2018-03-30T06:30:07.167Z,6.90
2018-03-30T06:31:08.285Z,7.00
2018-03-30T06:32:10.127Z,7.00
2018-03-30T06:33:11.971Z,7.00
2018-03-30T06:34:13.809Z,6.90
2018-03-30T06:35:14.926Z,6.90
2018-03-30T06:36:16.053Z,6.90
2018-03-30T06:37:17.163Z,6.90
2018-03-30T06:38:18.270Z,6.90
2018-03-30T06:39:19.373Z,6.90
2018-03-30T06:40:20.485Z,6.80
2018-03-30T06:41:21.588Z,6.80
2018-03-30T06:42:22.681Z,6.90
2018-03-30T06:43:23.772Z,6.90
2018-03-30T06:44:24.864Z,6.90
2018-03-30T06:45:25.964Z,7.00
2018-03-30T06:46:27.070Z,7.00
2018-03-30T06:47:28.218Z,7.00
2018-03-30T06:48:29.333Z,7.00
2018-03-30T06:49:30.425Z,7.10
2018-03-30T06:50:31.543Z,7.10
2018-03-30T06:51:32.643Z,7.10
2018-03-30T06:52:33.748Z,7.10
2018-03-30T06:53:34.848Z,7.10
2018-03-30T06:54:35.936Z,7.20
2018-03-30T06:55:37.032Z,7.20
2018-03-30T06:56:38.123Z,7.20
2018-03-30T06:57:39.274Z,7.20
2018-03-30T06:58:40.311Z,7.20
2018-03-30T06:59:42.135Z,7.30
2018-03-30T07:00:43.220Z,7.20
2018-03-30T07:01:44.306Z,7.30
2018-03-30T07:02:45.400Z,7.30
2018-03-30T07:03:46.514Z,7.40
2018-03-30T07:04:47.593Z,7.40
2018-03-30T07:05:48.677Z,7.40
2018-03-30T07:06:49.846Z,7.40
2018-03-30T07:07:50.977Z,7.40
2018-03-30T07:08:52.064Z,7.40
2018-03-30T07:09:53.166Z,7.40
2018-03-30T07:10:55.022Z,7.50
2018-03-30T07:11:56.144Z,7.50
2018-03-30T07:12:57.260Z,7.60
2018-03-30T07:13:58.347Z,7.70
2018-03-30T07:15:00.181Z,7.70
2018-03-30T07:16:01.257Z,7.70
2018-03-30T07:17:02.388Z,7.80
2018-03-30T07:18:03.488Z,7.80
2018-03-30T07:19:04.601Z,7.80
2018-03-30T07:20:05.708Z,7.80
2018-03-30T07:21:06.796Z,7.90
2018-03-30T07:22:07.913Z,8.00
2018-03-30T07:23:09.021Z,8.00
2018-03-30T07:24:10.136Z,8.00
2018-03-30T07:25:11.240Z,8.00
2018-03-30T07:26:12.354Z,8.10
2018-03-30T07:27:13.451Z,8.10
2018-03-30T07:28:14.551Z,8.10
2018-03-30T07:29:15.667Z,8.10
2018-03-30T07:30:23.693Z,8.20
2018-03-30T07:31:24.834Z,8.30
2018-03-30T07:32:25.937Z,8.30
2018-03-30T07:33:27.025Z,8.30
2018-03-30T07:34:28.161Z,8.30
2018-03-30T07:35:29.988Z,8.30
2018-03-30T07:36:31.157Z,8.40
2018-03-30T07:37:32.301Z,8.40
2018-03-30T07:38:33.434Z,8.40
2018-03-30T07:39:34.544Z,8.50
2018-03-30T07:40:35.743Z,8.60
2018-03-30T07:41:36.864Z,8.60
2018-03-30T07:42:37.955Z,8.70
2018-03-30T07:43:39.850Z,8.80
2018-03-30T07:44:41.637Z,8.80
2018-03-30T07:45:42.728Z,8.70
2018-03-30T07:46:43.909Z,8.70
2018-03-30T07:47:45.023Z,8.70
2018-03-30T07:48:46.133Z,8.80
2018-03-30T07:49:47.211Z,8.90
2018-03-30T07:50:48.309Z,8.90
2018-03-30T07:51:49.443Z,8.90
2018-03-30T07:52:50.551Z,9.00
2018-03-30T07:53:51.704Z,9.00
2018-03-30T07:54:53.532Z,9.10
2018-03-30T07:55:54.635Z,9.10
2018-03-30T07:56:56.473Z,9.10
2018-03-30T07:57:57.560Z,9.10
2018-03-30T07:58:58.646Z,9.10
2018-03-30T07:59:59.741Z,9.10
2018-03-30T08:01:00.833Z,9.20
2018-03-30T08:02:01.932Z,9.20
2018-03-30T08:03:03.059Z,9.20
2018-03-30T08:04:04.185Z,9.30
2018-03-30T08:05:05.281Z,9.30
2018-03-30T08:06:06.383Z,9.40
2018-03-30T08:07:07.472Z,9.50
2018-03-30T08:08:08.596Z,9.50
2018-03-30T08:09:09.738Z,9.50
2018-03-30T08:10:10.827Z,9.60
2018-03-30T08:11:11.920Z,9.70
2018-03-30T08:12:13.053Z,9.80
2018-03-30T08:13:14.139Z,9.80
2018-03-30T08:14:15.228Z,9.90
2018-03-30T08:15:17.084Z,10.00
2018-03-30T08:16:18.192Z,10.00
2018-03-30T08:17:19.300Z,10.00
2018-03-30T08:18:20.443Z,10.10
2018-03-30T08:19:21.532Z,10.10
2018-03-30T08:20:22.621Z,10.10
2018-03-30T08:21:23.718Z,10.20
2018-03-30T08:22:24.827Z,10.20
2018-03-30T08:23:25.956Z,10.10
2018-03-30T08:24:27.040Z,10.10
2018-03-30T08:25:28.154Z,10.10
2018-03-30T08:26:29.251Z,10.10
2018-03-30T08:27:30.340Z,10.10
2018-03-30T08:28:31.433Z,10.20
2018-03-30T08:29:32.529Z,10.20
2018-03-30T08:30:33.653Z,10.20
2018-03-30T08:31:35.129Z,10.20
2018-03-30T08:32:36.983Z,10.20
2018-03-30T08:33:38.167Z,10.20
2018-03-30T08:34:39.248Z,10.30
2018-03-30T08:35:41.084Z,10.30
2018-03-30T08:36:42.184Z,10.30
2018-03-30T08:37:43.260Z,10.30
2018-03-30T08:38:45.141Z,10.40
2018-03-30T08:39:46.238Z,10.40
2018-03-30T08:40:48.090Z,10.50
2018-03-30T08:41:50.714Z,10.60
2018-03-30T08:42:51.796Z,10.60
2018-03-30T08:43:53.663Z,10.70
2018-03-30T08:44:54.741Z,10.60
2018-03-30T08:45:55.835Z,10.70
2018-03-30T08:46:56.941Z,10.70
2018-03-30T08:47:58.072Z,10.70
2018-03-30T08:48:59.169Z,10.70
2018-03-30T08:50:01.005Z,10.90
2018-03-30T08:51:02.330Z,10.90
2018-03-30T08:52:03.426Z,10.90
2018-03-30T08:53:05.284Z,11.10
2018-03-30T08:54:07.121Z,11.20
2018-03-30T08:55:08.965Z,11.20
2018-03-30T08:56:10.807Z,11.30
2018-03-30T08:57:11.907Z,11.30
2018-03-30T08:58:13.005Z,11.30
2018-03-30T08:59:14.844Z,11.50
2018-03-30T09:00:16.735Z,11.60
2018-03-30T09:01:18.580Z,11.70
2018-03-30T09:02:19.704Z,11.70
2018-03-30T09:03:20.795Z,11.90
2018-03-30T09:04:21.901Z,11.80
2018-03-30T09:05:23.072Z,11.90
2018-03-30T09:06:29.340Z,12.00
2018-03-30T09:07:31.892Z,12.00
2018-03-30T09:08:32.992Z,12.00
2018-03-30T09:09:36.004Z,12.10
2018-03-30T09:10:38.476Z,12.10
2018-03-30T09:11:40.874Z,12.20
2018-03-30T09:13:50.082Z,12.20
2018-03-30T09:14:53.044Z,12.30
2018-03-30T09:15:54.582Z,12.40
2018-03-30T09:16:56.282Z,12.40
2018-03-30T09:17:57.577Z,12.40
2018-03-30T09:18:58.704Z,12.50
2018-03-30T09:20:00.554Z,12.50
2018-03-30T09:21:01.677Z,12.50
2018-03-30T09:22:03.516Z,12.60
2018-03-30T09:23:04.627Z,12.60
2018-03-30T09:24:05.736Z,12.70
2018-03-30T09:25:06.848Z,12.70
2018-03-30T09:26:07.927Z,12.90
2018-03-30T09:27:09.048Z,12.80
2018-03-30T09:28:10.203Z,12.90
2018-03-30T09:29:11.656Z,12.90
2018-03-30T09:30:12.830Z,13.00
2018-03-30T09:31:14.052Z,13.00
2018-03-30T09:32:15.209Z,13.00
2018-03-30T09:33:22.625Z,13.10
2018-03-30T09:34:23.766Z,13.10
2018-03-30T09:35:24.859Z,13.20
2018-03-30T09:36:25.947Z,13.20
2018-03-30T09:37:27.796Z,13.20
2018-03-30T09:38:28.893Z,13.10
2018-03-30T09:39:29.984Z,13.20
2018-03-30T09:40:31.815Z,13.20
2018-03-30T09:41:33.649Z,13.30
2018-03-30T09:42:34.729Z,13.30
2018-03-30T09:43:35.864Z,13.30
2018-03-30T09:44:36.965Z,13.40
2018-03-30T09:45:38.089Z,13.40
2018-03-30T09:46:39.182Z,13.40
2018-03-30T09:47:40.316Z,13.50
2018-03-30T09:48:41.459Z,13.50
2018-03-30T09:49:42.547Z,13.50
2018-03-30T09:50:43.674Z,13.50
2018-03-30T09:51:50.920Z,13.50
2018-03-30T09:52:52.049Z,13.50
2018-03-30T09:53:53.111Z,13.50
2018-03-30T09:54:54.225Z,13.50
2018-03-30T09:55:55.332Z,13.50
2018-03-30T09:56:56.448Z,13.50
2018-03-30T09:57:57.544Z,13.50
2018-03-30T09:58:59.396Z,13.60
2018-03-30T10:00:00.493Z,13.60
2018-03-30T10:01:01.614Z,13.70
2018-03-30T10:02:02.730Z,13.70
2018-03-30T10:03:03.880Z,13.80
2018-03-30T10:04:07.809Z,13.90
2018-03-30T10:05:08.941Z,13.90
2018-03-30T10:06:10.029Z,14.00
2018-03-30T10:07:11.128Z,14.00
2018-03-30T10:08:12.224Z,14.00
2018-03-30T10:09:13.364Z,14.10
2018-03-30T10:10:14.467Z,14.10
2018-03-30T10:11:15.568Z,14.10
2018-03-30T10:12:16.659Z,14.10
2018-03-30T10:13:17.780Z,14.20
2018-03-30T10:14:18.875Z,14.20
2018-03-30T10:15:19.971Z,14.30
2018-03-30T10:16:21.102Z,14.30
2018-03-30T10:17:22.947Z,14.40
2018-03-30T10:18:24.070Z,14.40
2018-03-30T10:19:25.175Z,14.40
2018-03-30T10:20:26.262Z,14.40
2018-03-30T10:21:27.496Z,14.60
2018-03-30T10:22:28.670Z,14.50
2018-03-30T10:23:29.811Z,14.60
2018-03-30T10:24:30.906Z,14.70
2018-03-30T10:25:32.742Z,14.70
2018-03-30T10:26:34.583Z,14.80
2018-03-30T10:27:35.674Z,14.70
2018-03-30T10:28:36.782Z,14.80
2018-03-30T10:29:37.859Z,14.90
2018-03-30T10:30:38.952Z,14.90
2018-03-30T10:31:41.764Z,14.90
2018-03-30T10:32:42.874Z,15.00
2018-03-30T10:33:44.916Z,15.00
2018-03-30T10:34:46.008Z,15.10
2018-03-30T10:35:47.140Z,15.20
2018-03-30T10:36:48.237Z,15.20
2018-03-30T10:37:49.343Z,15.20
2018-03-30T10:38:50.432Z,15.20
2018-03-30T10:39:51.538Z,15.30
2018-03-30T10:40:52.648Z,15.30
2018-03-30T10:41:53.739Z,15.30
2018-03-30T10:42:54.831Z,15.40
2018-03-30T10:43:55.924Z,15.40
2018-03-30T10:44:57.036Z,15.30
2018-03-30T10:45:58.129Z,15.30
2018-03-30T10:46:59.265Z,15.30
2018-03-30T10:48:00.688Z,15.30
2018-03-30T10:49:02.030Z,15.30
2018-03-30T10:50:03.135Z,15.40
2018-03-30T10:51:04.978Z,15.40
2018-03-30T10:52:06.828Z,15.60
2018-03-30T10:53:08.748Z,15.50
2018-03-30T10:54:10.891Z,15.60
2018-03-30T10:55:11.981Z,15.60
2018-03-30T10:56:13.828Z,15.70
2018-03-30T10:57:14.939Z,15.70
2018-03-30T10:58:16.786Z,15.80
2018-03-30T10:59:17.881Z,15.80
2018-03-30T11:00:19.068Z,15.90
2018-03-30T11:01:20.129Z,16.00
2018-03-30T11:02:21.237Z,16.00
2018-03-30T11:03:22.350Z,16.20
2018-03-30T11:04:23.507Z,16.10
2018-03-30T11:05:24.622Z,16.20
2018-03-30T11:06:25.832Z,16.20
2018-03-30T11:07:26.941Z,16.20
2018-03-30T11:08:28.044Z,16.30
2018-03-30T11:09:29.817Z,16.50
2018-03-30T11:10:32.133Z,16.40
2018-03-30T11:11:33.245Z,16.40
2018-03-30T11:12:34.369Z,16.40
2018-03-30T11:13:35.557Z,16.40
2018-03-30T11:14:36.678Z,16.50
2018-03-30T11:15:37.765Z,16.50
2018-03-30T11:16:38.920Z,16.60
2018-03-30T11:17:40.019Z,16.60
2018-03-30T11:18:41.099Z,16.60
2018-03-30T11:19:42.207Z,16.60
2018-03-30T11:20:43.304Z,16.60
2018-03-30T11:21:44.419Z,16.70
2018-03-30T11:22:45.552Z,16.70
2018-03-30T11:23:46.737Z,16.70
2018-03-30T11:24:49.694Z,16.90
2018-03-30T11:25:50.880Z,16.90
2018-03-30T11:26:52.197Z,16.90
2018-03-30T11:27:53.302Z,16.90
2018-03-30T11:28:54.403Z,17.00
2018-03-30T11:29:55.534Z,17.00
2018-03-30T11:30:56.767Z,17.20
2018-03-30T11:31:57.860Z,17.20
2018-03-30T11:32:58.980Z,17.20
2018-03-30T11:34:00.264Z,17.30
2018-03-30T11:35:02.143Z,17.30
2018-03-30T11:36:03.277Z,17.40
2018-03-30T11:37:04.343Z,17.40
2018-03-30T11:38:05.452Z,17.40
2018-03-30T11:39:06.758Z,17.40
2018-03-30T11:40:07.916Z,17.40
2018-03-30T11:41:09.009Z,17.30
2018-03-30T11:42:10.101Z,17.30
2018-03-30T11:43:11.207Z,17.30
2018-03-30T11:44:12.296Z,17.20
2018-03-30T11:45:14.091Z,17.20
2018-03-30T11:46:15.169Z,17.20
2018-03-30T11:47:16.275Z,17.20
2018-03-30T11:48:17.360Z,17.20
2018-03-30T11:49:18.437Z,17.20
2018-03-30T11:50:19.532Z,17.20
2018-03-30T11:51:20.628Z,17.20
2018-03-30T11:52:21.743Z,17.30
2018-03-30T11:53:22.870Z,17.20
2018-03-30T11:54:25.405Z,17.10
2018-03-30T11:55:26.580Z,17.10
2018-03-30T11:56:27.758Z,17.10
2018-03-30T11:57:29.590Z,17.10
2018-03-30T11:58:30.707Z,17.10
2018-03-30T11:59:31.803Z,17.10
2018-03-30T12:00:32.901Z,17.10
2018-03-30T12:01:34.754Z,17.10
2018-03-30T12:02:35.861Z,17.10
2018-03-30T12:03:36.952Z,17.20
2018-03-30T12:04:38.050Z,17.20
2018-03-30T12:05:39.902Z,17.10
2018-03-30T12:06:41.003Z,17.10
2018-03-30T12:07:42.110Z,17.00
2018-03-30T12:08:43.232Z,17.00
2018-03-30T12:09:44.328Z,17.00
2018-03-30T12:10:45.426Z,17.10
2018-03-30T12:11:46.544Z,17.20
2018-03-30T12:12:47.635Z,17.20
2018-03-30T12:13:48.771Z,17.20
2018-03-30T12:14:50.625Z,17.30
2018-03-30T12:15:51.720Z,17.30
2018-03-30T12:16:52.826Z,17.30
2018-03-30T12:17:53.921Z,17.30
2018-03-30T12:18:55.768Z,17.20
2018-03-30T12:19:57.600Z,17.40
2018-03-30T12:20:58.726Z,17.40
2018-03-30T12:21:59.807Z,17.40
2018-03-30T12:23:00.916Z,17.40
2018-03-30T12:24:02.036Z,17.50
2018-03-30T12:25:03.152Z,17.50
2018-03-30T12:26:04.266Z,17.50
2018-03-30T12:27:05.356Z,17.50
2018-03-30T12:28:07.197Z,17.40
2018-03-30T12:29:08.311Z,17.40
2018-03-30T12:30:09.453Z,17.40
2018-03-30T12:31:10.577Z,17.40
2018-03-30T12:32:11.684Z,17.30
2018-03-30T12:33:12.784Z,17.30
2018-03-30T12:34:13.893Z,17.20
2018-03-30T12:35:15.746Z,17.30
2018-03-30T12:36:17.597Z,17.30
2018-03-30T12:37:19.440Z,17.30
2018-03-30T12:38:21.306Z,17.40
2018-03-30T12:39:22.433Z,17.40
2018-03-30T12:40:23.549Z,17.40
2018-03-30T12:41:24.660Z,17.50
2018-03-30T12:42:25.757Z,17.60
2018-03-30T12:43:26.873Z,17.60
2018-03-30T12:44:28.061Z,17.60
2018-03-30T12:45:29.193Z,17.50
2018-03-30T12:46:30.312Z,17.60
2018-03-30T12:47:31.380Z,17.60
2018-03-30T12:48:32.483Z,17.60
2018-03-30T12:49:33.577Z,17.70
2018-03-30T12:50:34.794Z,17.70
2018-03-30T12:52:44.440Z,17.70
2018-03-30T12:53:45.548Z,17.70
2018-03-30T12:54:46.664Z,17.80
2018-03-30T12:55:47.743Z,17.80
2018-03-30T12:56:49.620Z,17.90
2018-03-30T12:57:51.433Z,18.00
2018-03-30T12:58:52.536Z,18.00
2018-03-30T12:59:53.690Z,18.00
2018-03-30T13:00:54.796Z,18.00
2018-03-30T13:01:55.917Z,18.10
2018-03-30T13:02:57.009Z,18.20
2018-03-30T13:03:58.850Z,18.30
2018-03-30T13:04:59.965Z,18.30
2018-03-30T13:06:01.679Z,18.40
2018-03-30T13:07:05.728Z,18.40
2018-03-30T13:08:08.282Z,18.50
2018-03-30T13:09:09.388Z,18.50
2018-03-30T13:10:10.492Z,18.60
2018-03-30T13:11:11.586Z,18.50
2018-03-30T13:12:13.429Z,18.60
2018-03-30T13:13:14.553Z,18.60
2018-03-30T13:14:15.690Z,18.60
2018-03-30T13:15:16.780Z,18.60
2018-03-30T13:16:17.867Z,18.60
2018-03-30T13:17:19.701Z,18.50
2018-03-30T13:18:20.807Z,18.50
2018-03-30T13:19:21.905Z,18.50
2018-03-30T13:20:23.010Z,18.50
2018-03-30T13:21:24.860Z,18.40
2018-03-30T13:22:25.944Z,18.30
2018-03-30T13:23:27.038Z,18.30
2018-03-30T13:24:28.876Z,18.30
2018-03-30T13:25:29.977Z,18.20
2018-03-30T13:26:31.061Z,18.20
2018-03-30T13:27:32.897Z,18.20
2018-03-30T13:28:34.014Z,18.20
2018-03-30T13:29:41.959Z,18.20
2018-03-30T13:30:43.058Z,18.20
2018-03-30T13:31:44.171Z,18.20